Latest Coastal Weather Observations for Maria Island

IDT60701

Issued at 1:22 am EST Thursday 29 September 2016 (issued every 10 minutes, with the page automatically refreshed every 10 minutes)

About coastal observations | Map of coastal stations | Coastal observations for TAS | Marine services | Other Formats
Station Details ID: 092124 Name: MARIA ISLAND (POINT LESUEUR) Lat: -42.66 Lon: 148.02 Height: 28.0 m
Data from the previous 72 hours. | See also: Recent months at Maria Island
Date/Time
EST
Temp
°C
Wind Pressure Rain since
9am
mm
Weather Cloud Vis
km
Sea
Height
m
Swell
Dir  Spd
kts
Gust
kts
hPa Trend Height
m
Period
s
Dir
29/01:00am 12.1 NNE 14 18 1003.5 - 0.0 - - - - - - -
29/12:30am 12.3 NNE 16 19 1003.6 - 0.0 - - - - - - -
29/12:00am 12.2 N 17 20 1003.8 - 0.0 - - - - - - -
 
Date/Time
EST
Temp
°C
Wind Pressure Rain since
9am
mm
Weather Cloud Vis
km
Sea
Height
m
Swell
Dir  Spd
kts
Gust
kts
hPa Trend Height
m
Period
s
Dir
28/11:30pm 11.9 N 16 19 1004.0 - 0.0 - - - - - - -
28/11:00pm 12.2 N 13 15 1004.5 - 0.0 - - - - - - -
28/10:30pm 12.4 NNE 13 16 1004.5 - 0.0 - - - - - - -
28/10:00pm 12.6 NNE 11 13 1004.7 - 0.0 - - - - - - -
28/09:30pm 12.7 NNE 10 13 1004.9 - 0.0 - - - - - - -
28/09:00pm 12.9 NE 11 17 1005.3 - 0.0 - - - - - - -
28/08:30pm 12.5 NE 9 12 1005.7 - 0.0 - - - - - - -
28/08:00pm 12.5 NE 8 12 1005.9 - 0.0 - - - - - - -
28/07:30pm 12.0 ENE 6 9 1006.0 - 0.0 - - - - - - -
28/07:00pm 11.7 ENE 6 7 1006.0 - 0.0 - - - - - - -
28/06:30pm 11.8 NE 7 11 1006.0 - 0.0 - - - - - - -
28/06:00pm 12.6 NE 9 13 1006.1 - 0.0 - - - - - - -
28/05:30pm 12.7 ENE 9 11 1005.8 - 0.0 - - - - - - -
28/05:00pm 12.6 ENE 9 12 1005.7 - 0.0 - - - - - - -
28/04:30pm 12.7 ENE 11 16 1005.7 - 0.0 - - - - - - -
28/04:00pm 13.0 ENE 10 13 1006.0 - 0.0 - - - - - - -
28/03:30pm 12.9 E 10 13 1006.3 - 0.0 - - - - - - -
28/03:00pm 13.0 ENE 9 10 1006.6 - 0.0 - - - - - - -
28/02:30pm 13.2 E 6 12 1006.9 - 0.0 - - - - - - -
28/02:00pm 13.7 ESE 12 16 1007.0 - 0.0 - - - - - - -
28/01:30pm 13.8 ESE 12 15 1007.5 - 0.0 - - - - - - -
28/01:00pm 13.8 ESE 12 14 1007.9 - 0.0 - - - - - - -
28/12:30pm 13.6 E 11 13 1008.2 - 0.0 - - - - - - -
28/12:00pm 13.6 ESE 11 13 1008.4 - 0.0 - - - - - - -
28/11:30am 13.5 E 10 13 1008.6 - 0.0 - - - - - - -
28/11:00am 13.6 ESE 8 11 1008.9 - 0.0 - - - - - - -
28/10:30am 13.3 SSE 4 8 1009.3 - 0.0 - - - - - - -
28/10:00am 13.1 S 4 5 1009.5 - 0.0 - - - - - - -
28/09:30am 12.7 S 3 5 1009.7 - 0.0 - - - - - - -
28/09:00am 12.3 SSE 2 3 1009.9 - 0.0 - - - - - - -
28/08:30am 12.1 SSW 1 4 1009.8 - 0.0 - - - - - - -
28/08:00am 11.6 WNW 6 8 1009.8 - 0.0 - - - - - - -
28/07:30am 10.9 WNW 7 8 1009.7 - 0.0 - - - - - - -
28/07:00am 10.6 NW 10 11 1009.4 - 0.0 - - - - - - -
28/06:30am 10.4 NW 11 13 1009.1 - 0.0 - - - - - - -
28/06:00am 10.0 WNW 10 11 1008.7 - 0.0 - - - - - - -
28/05:30am 10.0 NW 6 7 1008.7 - 0.0 - - - - - - -
28/05:00am 10.0 NW 6 8 1008.4 - 0.0 - - - - - - -
28/04:30am 10.1 NW 6 8 1008.2 - 0.0 - - - - - - -
28/04:00am 10.3 NW 8 9 1007.9 - 0.0 - - - - - - -
28/03:30am 10.1 WNW 9 11 1007.8 - 0.0 - - - - - - -
28/03:00am 10.2 W 4 6 1007.7 - 0.0 - - - - - - -
28/02:30am 10.3 WNW 7 13 1007.4 - 0.0 - - - - - - -
28/02:00am 10.0 WNW 8 9 1007.4 - 0.0 - - - - - - -
28/01:30am 10.4 W 8 10 1007.4 - 0.0 - - - - - - -
28/01:00am 10.5 WNW 4 7 1007.4 - 0.0 - - - - - - -
28/12:30am 10.7 WNW 4 6 1007.3 - 0.0 - - - - - - -
28/12:00am 11.2 NNW 10 12 1007.2 - 0.0 - - - - - - -
 
Date/Time
EST
Temp
°C
Wind Pressure Rain since
9am
mm
Weather Cloud Vis
km
Sea
Height
m
Swell
Dir  Spd
kts
Gust
kts
hPa Trend Height
m
Period
s
Dir
27/11:30pm 11.5 NNW 10 12 1007.3 - 0.0 - - - - - - -
27/11:00pm 11.8 N 9 12 1007.1 - 0.0 - - - - - - -
27/10:30pm 11.8 N 12 14 1007.0 - 0.0 - - - - - - -
27/10:00pm 11.8 N 12 14 1007.1 - 0.0 - - - - - - -
27/09:30pm 11.7 NNE 13 15 1007.1 - 0.0 - - - - - - -
27/09:00pm 12.1 N 14 17 1007.5 - 0.0 - - - - - - -
27/08:30pm 11.8 NNE 9 11 1007.5 - 0.0 - - - - - - -
27/08:00pm 11.8 N 9 11 1007.4 - 0.0 - - - - - - -
27/07:30pm 11.7 NNE 5 7 1007.4 - 0.0 - - - - - - -
27/07:00pm 11.1 NE 5 6 1007.3 - 0.0 - - - - - - -
27/06:30pm 11.9 NNE 10 12 1007.0 - 0.0 - - - - - - -
27/06:00pm 12.1 NNE 13 15 1006.6 - 0.0 - - - - - - -
27/05:30pm 12.6 NNE 11 13 1006.6 - 0.0 - - - - - - -
27/05:00pm 13.7 SSE 4 13 1006.6 - 0.0 - - - - - - -
27/04:30pm 14.2 NNE 8 10 1006.3 - 0.0 - - - - - - -
27/04:00pm 13.8 N 9 10 1006.3 - 0.0 - - - - - - -
27/03:30pm 14.1 N 11 12 1006.3 - 0.0 - - - - - - -
27/03:00pm 14.4 N 9 10 1006.3 - 0.0 - - - - - - -
27/02:30pm 14.2 N 11 13 1006.3 - 0.0 - - - - - - -
27/02:00pm 14.5 N 13 14 1006.4 - 0.0 - - - - - - -
27/01:30pm 14.7 N 11 13 1006.5 - 0.0 - - - - - - -
27/01:00pm 14.5 N 9 10 1006.8 - 0.0 - - - - - - -
27/12:30pm 14.1 N 9 10 1007.1 - 0.0 - - - - - - -
27/12:00pm 14.3 N 9 10 1007.1 - 0.0 - - - - - - -
27/11:30am 12.9 N 8 9 1007.3 - 0.0 - - - - - - -
27/11:00am 12.6 N 7 8 1007.7 - 0.0 - - - - - - -
27/10:30am 11.9 N 6 7 1007.9 - 0.0 - - - - - - -
27/10:00am 11.6 NNW 5 7 1007.8 - 0.0 - - - - - - -
27/09:30am 11.1 N 5 5 1007.9 - 0.0 - - - - - - -
27/09:00am 11.1 N 4 7 1007.9 - 0.0 - - - - - - -
27/08:30am 10.2 N 3 4 1008.0 - 0.0 - - - - - - -
27/08:00am 9.5 NW 4 5 1008.1 - 0.0 - - - - - - -
27/07:30am 9.2 WNW 9 11 1008.1 - 0.0 - - - - - - -
27/07:00am 8.6 WNW 10 12 1007.9 - 0.0 - - - - - - -
27/06:30am 8.5 NW 8 9 1007.9 - 0.0 - - - - - - -
27/06:00am 7.9 WNW 11 15 1007.6 - 0.0 - - - - - - -
27/05:30am 8.4 WNW 7 8 1007.4 - 0.0 - - - - - - -
27/05:00am 8.1 WNW 8 10 1007.1 - 0.0 - - - - - - -
27/04:30am 7.8 WNW 6 6 1007.1 - 0.0 - - - - - - -
27/04:00am 8.3 WNW 5 6 1007.1 - 0.0 - - - - - - -
27/03:30am 8.4 WNW 5 6 1007.1 - 0.0 - - - - - - -
27/03:00am 8.5 WNW 7 8 1007.3 - 0.0 - - - - - - -
27/02:30am 8.7 WNW 7 8 1007.4 - 0.0 - - - - - - -
27/02:00am 8.8 WNW 8 9 1007.6 - 0.0 - - - - - - -
27/01:30am 9.0 WNW 6 7 1007.8 - 0.0 - - - - - - -
27/01:00am 9.2 W 5 6 1008.0 - 0.0 - - - - - - -
27/12:30am 9.6 WNW 3 3 1008.3 - 0.0 - - - - - - -
27/12:00am 9.7 W 3 5 1008.5 - 0.0 - - - - - - -
 
Date/Time
EST
Temp
°C
Wind Pressure Rain since
9am
mm
Weather Cloud Vis
km
Sea
Height
m
Swell
Dir  Spd
kts
Gust
kts
hPa Trend Height
m
Period
s
Dir
26/11:30pm 10.6 N 4 6 1008.7 - 0.0 - - - - - - -
26/11:00pm 10.2 NW 6 7 1008.7 - 0.0 - - - - - - -
26/10:30pm 10.9 NNW 8 9 1008.8 - 0.0 - - - - - - -
26/10:00pm 11.0 NNW 9 10 1008.9 - 0.0 - - - - - - -
26/09:30pm 11.3 N 9 12 1008.9 - 0.0 - - - - - - -
26/09:00pm 11.6 NNE 8 10 1008.9 - 0.0 - - - - - - -
26/08:30pm 11.7 N 9 11 1008.9 - 0.0 - - - - - - -
26/08:00pm 11.5 NNE 7 8 1009.0 - 0.0 - - - - - - -
26/07:30pm 11.7 NNE 8 9 1008.9 - 0.0 - - - - - - -
26/07:00pm 11.4 NE 6 7 1008.8 - 0.0 - - - - - - -
26/06:30pm 11.4 NE 6 7 1008.5 - 0.0 - - - - - - -
26/06:00pm 11.7 NE 9 11 1008.4 - 0.0 - - - - - - -
26/05:30pm 11.9 NNE 10 12 1008.4 - 0.0 - - - - - - -
26/05:00pm 11.9 NNE 14 16 1007.8 - 0.0 - - - - - - -
26/04:30pm 12.2 N 12 15 1007.6 - 0.0 - - - - - - -
26/04:00pm 12.6 NNE 12 14 1007.5 - 0.0 - - - - - - -
26/03:30pm 12.8 NNE 10 14 1007.6 - 0.0 - - - - - - -
26/03:00pm 12.9 N 11 14 1007.8 - 0.0 - - - - - - -
26/02:30pm 12.9 N 12 16 1007.9 - 0.0 - - - - - - -
26/02:00pm 13.4 N 12 15 1008.1 - 0.0 - - - - - - -
26/01:30pm 13.5 N 12 14 1008.2 - 0.0 - - - - - - -
26/01:00pm 13.5 N 11 13 1008.5 - 0.0 - - - - - - -
26/12:30pm 13.4 N 11 13 1008.9 - 0.0 - - - - - - -
26/12:00pm 12.5 N 11 12 1009.2 - 0.0 - - - - - - -
26/11:30am 13.1 N 11 13 1009.6 - 0.0 - - - - - - -
26/11:00am 13.0 N 8 9 1009.8 - 0.0 - - - - - - -
26/10:30am 12.0 NNW 5 6 1010.2 - 0.0 - - - - - - -
26/10:00am 11.5 NNW 3 4 1010.5 - 0.0 - - - - - - -
26/09:30am 11.0 NNW 4 5 1010.6 - 0.0 - - - - - - -
26/09:00am 10.5 N 3 4 1010.8 - 0.0 - - - - - - -
26/08:30am 10.3 N 3 3 1010.8 - 0.0 - - - - - - -
26/08:00am 9.6 NNW 4 6 1011.0 - 0.0 - - - - - - -
26/07:30am 9.1 NW 6 8 1010.9 - 0.0 - - - - - - -
26/07:00am 8.6 WNW 9 10 1011.0 - 0.0 - - - - - - -
26/06:30am 7.8 W 7 9 1011.0 - 0.0 - - - - - - -
26/06:00am 7.8 WNW 6 7 1010.7 - 0.0 - - - - - - -
26/05:30am 7.8 NW 4 5 1010.5 - 0.0 - - - - - - -
26/05:00am 8.0 NW 4 5 1010.4 - 0.0 - - - - - - -
26/04:30am 8.0 WNW 5 6 1010.4 - 0.0 - - - - - - -
26/04:00am 8.2 WNW 5 5 1010.3 - 0.0 - - - - - - -
26/03:30am 8.2 NNW 5 7 1010.3 - 0.0 - - - - - - -
26/03:00am 8.2 NW 2 3 1010.1 - 0.0 - - - - - - -
26/02:30am 8.1 WNW 4 5 1010.2 - 0.0 - - - - - - -
26/02:00am 8.3 W 4 6 1010.4 - 0.0 - - - - - - -
26/01:30am 8.0 WSW 6 9 1010.4 - 0.0 - - - - - - -

Other Formats:

Comma delimited format used in spreadsheet applications
http://www.bom.gov.au/fwo/IDT60701/IDT60701.95988.axf

JavaScript Object Notation format (JSON) in row-major order
http://www.bom.gov.au/fwo/IDT60701/IDT60701.95988.json